Accueil
METAR-TAF:

METAR-TAF

Aéroports :

Sabadell, Espagne

latitude: 41-31N, longitude: 002-06E, altitude: 250 m

Observation

Le bulletin a été fait il y a 19 minutes, à 21:30 UTC
Vent 3 kt de ouest
Température 17°C
Humidité 88%
Pression 1018 hPa
Visibilité 10 km ou plus

METAR: LELL 212130Z AUTO 27003KT 9999 NCD 17/15 Q1018

Heure: 23:49 (21:49 UTC)

Prévision

Le bulletin a été fait il y a 7 heures et 49 minutes, à 14:00 UTC
Prévision valable du 21 à 15 UTC au 22 à 15 UTC
Vent 5 kt de ouest/sud-ouest
Visibilité 10 km ou plus
Quelques nuages à une hauteur de 3000 ft
Evoluant progressivement
du 21 à 22 UTC au 21 à 24 UTC
Vent 3 kt de direction variable
Evoluant progressivement
du 22 à 07 UTC au 22 à 10 UTC
Vent 6 kt de sud/sud-ouest

TAF: LELL 211400Z 2115/2215 24005KT 9999 FEW030 TX22/2213Z TN13/2206Z BECMG 2122/2124 VRB03KT BECMG 2207/2210 20006KT

Observations et prévisions météorologiques de plus de 4000 aéroports (messages METAR et TAF).

Les stations disponibles sont représentées par des disques jaunes et rouges sur la carte.

Passer la souris dessus pour voir le nom de la station.

Cliquer dessus pour voir les observations et prévisions météorologiques.

Pour changer de carte: cliquez sur les boutons verts avec une croix noire pour zoomer, sur le bouton vert avec un tiret pour effectuer un zoom arrière, ou sur les flèches vertes pour les cartes adjacentes.


METAR-TAF: